createdAt,value
2022-12-20T00:19:15.852Z,1004.41
2022-12-20T00:20:16.794Z,1004.43
2022-12-20T00:21:15.771Z,1004.39
2022-12-20T00:22:15.917Z,1004.36
2022-12-20T00:23:15.668Z,1004.43
2022-12-20T00:24:15.668Z,1004.34
2022-12-20T00:25:15.635Z,1004.27
2022-12-20T00:26:15.609Z,1004.37
2022-12-20T00:27:15.602Z,1004.29
2022-12-20T00:28:15.610Z,1004.34
2022-12-20T00:29:15.576Z,1004.33
2022-12-20T00:30:15.572Z,1004.36
2022-12-20T00:31:15.558Z,1004.34
2022-12-20T00:32:22.316Z,1004.32
2022-12-20T00:33:15.567Z,1004.31
2022-12-20T00:34:15.553Z,1004.36
2022-12-20T00:35:15.542Z,1004.37
2022-12-20T00:36:15.519Z,1004.39
2022-12-20T00:37:15.502Z,1004.4
2022-12-20T00:38:15.528Z,1004.42
2022-12-20T00:39:16.528Z,1004.35
2022-12-20T00:40:15.482Z,1004.29
2022-12-20T00:41:15.469Z,1004.21
2022-12-20T00:42:15.448Z,1004.31
2022-12-20T00:43:15.446Z,1004.34
2022-12-20T00:44:15.543Z,1004.32
2022-12-20T00:45:15.441Z,1004.35
2022-12-20T00:46:15.413Z,1004.35
2022-12-20T00:47:15.417Z,1004.38
2022-12-20T00:48:15.405Z,1004.35
2022-12-20T00:49:15.370Z,1004.37
2022-12-20T00:50:15.396Z,1004.32
2022-12-20T00:51:15.351Z,1004.27
2022-12-20T00:52:15.361Z,1004.19
2022-12-20T00:53:15.525Z,1004.28
2022-12-20T00:54:15.321Z,1004.25
2022-12-20T00:55:15.317Z,1004.16
2022-12-20T00:56:15.342Z,1004.22
2022-12-20T00:57:16.289Z,1004.23
2022-12-20T00:58:15.278Z,1004.21
2022-12-20T00:59:15.277Z,1004.2
2022-12-20T01:00:15.282Z,1004.22
2022-12-20T01:01:15.255Z,1004.18
2022-12-20T01:02:15.409Z,1004.16
2022-12-20T01:03:15.236Z,1004.12
2022-12-20T01:04:15.291Z,1004.16
2022-12-20T01:05:15.242Z,1004.09
2022-12-20T01:06:15.209Z,1004.02
2022-12-20T01:07:15.182Z,1004.04
2022-12-20T01:08:15.171Z,1004.03
2022-12-20T01:09:15.203Z,1004.1
2022-12-20T01:10:15.168Z,1004.01
2022-12-20T01:11:15.181Z,1004.03
2022-12-20T01:12:15.127Z,1003.96
2022-12-20T01:13:15.260Z,1004.08
2022-12-20T01:14:16.451Z,1004.06
2022-12-20T01:15:15.105Z,1003.99
2022-12-20T01:16:15.112Z,1003.95
2022-12-20T01:17:15.135Z,1004
2022-12-20T01:18:15.098Z,1003.88
2022-12-20T01:19:15.058Z,1003.86
2022-12-20T01:20:15.076Z,1003.93
2022-12-20T01:21:15.151Z,1003.97
2022-12-20T01:22:15.020Z,1003.93
2022-12-20T01:23:15.177Z,1003.93
2022-12-20T01:24:15.226Z,1003.95
2022-12-20T01:25:15.079Z,1003.96
2022-12-20T01:26:14.986Z,1003.95
2022-12-20T01:27:14.999Z,1003.9
2022-12-20T01:28:14.993Z,1003.95
2022-12-20T01:29:14.964Z,1003.88
2022-12-20T01:30:14.969Z,1003.92
2022-12-20T01:31:15.080Z,1003.94
2022-12-20T01:32:14.954Z,1003.84
2022-12-20T01:33:14.941Z,1003.73
2022-12-20T01:34:14.890Z,1003.86
2022-12-20T01:35:14.883Z,1003.88
2022-12-20T01:36:14.910Z,1003.82
2022-12-20T01:37:14.866Z,1003.8
2022-12-20T01:38:14.857Z,1003.78
2022-12-20T01:39:14.935Z,1003.87
2022-12-20T01:40:14.866Z,1003.88
2022-12-20T01:41:14.829Z,1003.8
2022-12-20T01:42:14.807Z,1003.74
2022-12-20T01:43:14.798Z,1003.72
2022-12-20T01:44:14.817Z,1003.73
2022-12-20T01:45:14.806Z,1003.8
2022-12-20T01:46:14.811Z,1003.85
2022-12-20T01:47:14.761Z,1003.84
2022-12-20T01:48:14.761Z,1003.85
2022-12-20T01:49:14.732Z,1003.93
2022-12-20T01:50:14.774Z,1003.87
2022-12-20T01:51:14.772Z,1003.8
2022-12-20T01:52:14.712Z,1003.82
2022-12-20T01:53:14.696Z,1003.75
2022-12-20T01:54:14.764Z,1003.81
2022-12-20T01:55:14.673Z,1003.75
2022-12-20T01:56:14.655Z,1003.77
2022-12-20T01:57:14.663Z,1003.7
2022-12-20T01:58:14.641Z,1003.71
2022-12-20T01:59:14.762Z,1003.67
2022-12-20T02:00:14.892Z,1003.67
2022-12-20T02:01:14.610Z,1003.7
2022-12-20T02:02:14.664Z,1003.73
2022-12-20T02:03:14.583Z,1003.76
2022-12-20T02:04:14.607Z,1003.74
2022-12-20T02:05:14.579Z,1003.79
2022-12-20T02:06:14.563Z,1003.89
2022-12-20T02:07:14.540Z,1003.81
2022-12-20T02:08:14.549Z,1003.84
2022-12-20T02:09:14.538Z,1003.78
2022-12-20T02:10:14.506Z,1003.76
2022-12-20T02:11:14.521Z,1003.85
2022-12-20T02:12:14.505Z,1003.94
2022-12-20T02:13:14.722Z,1003.88
2022-12-20T02:14:14.496Z,1003.81
2022-12-20T02:15:14.543Z,1003.86
2022-12-20T02:16:14.508Z,1003.91
2022-12-20T02:17:14.469Z,1003.85
2022-12-20T02:18:14.506Z,1003.74
2022-12-20T02:19:14.432Z,1003.69
2022-12-20T02:20:14.401Z,1003.76
2022-12-20T02:21:14.544Z,1003.65
2022-12-20T02:22:14.406Z,1003.62
2022-12-20T02:23:14.386Z,1003.6
2022-12-20T02:24:14.492Z,1003.46
2022-12-20T02:25:14.366Z,1003.53
2022-12-20T02:26:14.404Z,1003.45
2022-12-20T02:27:14.356Z,1003.51
2022-12-20T02:28:14.409Z,1003.49
2022-12-20T02:29:14.324Z,1003.5
2022-12-20T02:30:14.317Z,1003.45
2022-12-20T02:31:14.334Z,1003.35
2022-12-20T02:32:14.459Z,1003.4
2022-12-20T02:33:14.295Z,1003.33
2022-12-20T02:34:14.346Z,1003.36
2022-12-20T02:35:14.248Z,1003.36
2022-12-20T02:36:14.274Z,1003.26
2022-12-20T02:37:14.220Z,1003.32
2022-12-20T02:38:14.218Z,1003.34
2022-12-20T02:39:14.258Z,1003.4
2022-12-20T02:40:14.192Z,1003.37
2022-12-20T02:41:14.186Z,1003.37
2022-12-20T02:42:14.198Z,1003.38
2022-12-20T02:43:14.209Z,1003.33
2022-12-20T02:44:14.183Z,1003.34
2022-12-20T02:45:14.148Z,1003.4
2022-12-20T02:46:14.125Z,1003.4
2022-12-20T02:47:14.115Z,1003.52
2022-12-20T02:48:14.100Z,1003.43
2022-12-20T02:49:14.166Z,1003.44
2022-12-20T02:50:14.088Z,1003.45
2022-12-20T02:51:14.076Z,1003.33
2022-12-20T02:52:14.085Z,1003.24
2022-12-20T02:53:14.068Z,1003.21
2022-12-20T02:54:14.064Z,1003.26
2022-12-20T02:55:14.143Z,1003.32
2022-12-20T02:56:14.098Z,1003.33
2022-12-20T02:57:14.012Z,1003.2
2022-12-20T02:58:14.013Z,1003.18
2022-12-20T02:59:14.004Z,1003.25
2022-12-20T03:00:14.045Z,1003.24
2022-12-20T03:01:14.024Z,1003.29
2022-12-20T03:02:13.957Z,1003.34
2022-12-20T03:03:13.960Z,1003.24
2022-12-20T03:04:13.950Z,1003.09
2022-12-20T03:05:13.951Z,1003.1
2022-12-20T03:06:13.929Z,1003.01
2022-12-20T03:07:13.906Z,1003.05
2022-12-20T03:08:13.895Z,1003.06
2022-12-20T03:09:13.887Z,1003.14
2022-12-20T03:10:13.921Z,1003.12
2022-12-20T03:11:13.914Z,1002.99
2022-12-20T03:12:13.842Z,1003.07
2022-12-20T03:13:13.866Z,1003.19
2022-12-20T03:14:13.830Z,1003.27
2022-12-20T03:15:13.826Z,1003.28
2022-12-20T03:16:13.981Z,1003.12
2022-12-20T03:17:13.844Z,1003.03
2022-12-20T03:18:13.792Z,1003.18
2022-12-20T03:19:13.768Z,1002.95
2022-12-20T03:20:13.933Z,1002.95
2022-12-20T03:21:13.783Z,1003
2022-12-20T03:22:13.825Z,1002.99
2022-12-20T03:23:13.726Z,1003.16
2022-12-20T03:24:13.726Z,1003.12
2022-12-20T03:46:18.718Z,1003.37
2022-12-20T03:47:19.644Z,1003.34
2022-12-20T03:48:18.443Z,1003.37
2022-12-20T03:49:18.819Z,1003.32
2022-12-20T03:50:18.273Z,1003.38
2022-12-20T03:51:18.322Z,1003.38
2022-12-20T03:52:18.269Z,1003.37
2022-12-20T03:53:18.253Z,1003.38
2022-12-20T03:54:18.226Z,1003.33
2022-12-20T03:55:18.241Z,1003.36
2022-12-20T03:56:18.222Z,1003.39
2022-12-20T03:57:18.638Z,1003.32
2022-12-20T03:58:18.252Z,1003.38
2022-12-20T03:59:18.169Z,1003.36
2022-12-20T04:00:18.224Z,1003.35
2022-12-20T04:01:18.144Z,1003.3
2022-12-20T04:02:18.174Z,1003.28
2022-12-20T04:03:18.136Z,1003.3
2022-12-20T04:04:18.117Z,1003.25
2022-12-20T04:05:18.137Z,1003.2
2022-12-20T04:06:18.107Z,1003.21
2022-12-20T04:07:18.076Z,1003.33
2022-12-20T04:08:18.094Z,1003.49
2022-12-20T04:09:18.091Z,1003.57
2022-12-20T04:10:18.043Z,1003.52
2022-12-20T04:11:18.043Z,1003.54
2022-12-20T04:12:18.050Z,1003.57
2022-12-20T04:13:18.019Z,1003.52
2022-12-20T04:14:18.026Z,1003.54
2022-12-20T04:15:18.026Z,1003.51
2022-12-20T04:16:18.011Z,1003.52
2022-12-20T04:17:17.984Z,1003.51
2022-12-20T04:18:17.968Z,1003.54
2022-12-20T04:19:17.955Z,1003.53
2022-12-20T04:20:17.973Z,1003.55
2022-12-20T04:21:17.940Z,1003.55
2022-12-20T04:22:17.939Z,1003.56
2022-12-20T04:23:17.907Z,1003.6
2022-12-20T04:24:17.901Z,1003.61
2022-12-20T04:25:17.902Z,1003.69
2022-12-20T04:26:17.898Z,1003.61
2022-12-20T04:27:17.922Z,1003.52
2022-12-20T04:28:17.855Z,1003.51
2022-12-20T04:29:17.849Z,1003.59
2022-12-20T04:30:17.855Z,1003.61
2022-12-20T04:31:17.823Z,1003.54
2022-12-20T04:32:17.807Z,1003.58
2022-12-20T04:33:17.807Z,1003.52
2022-12-20T04:34:17.804Z,1003.54
2022-12-20T04:35:17.780Z,1003.48
2022-12-20T04:36:17.765Z,1003.47
2022-12-20T04:37:17.767Z,1003.48
2022-12-20T04:38:17.755Z,1003.5
2022-12-20T04:39:17.752Z,1003.48
2022-12-20T04:40:17.725Z,1003.43
2022-12-20T04:41:17.711Z,1003.44
2022-12-20T04:42:17.711Z,1003.4
2022-12-20T04:43:17.698Z,1003.43
2022-12-20T04:44:17.689Z,1003.4
2022-12-20T04:45:17.697Z,1003.41
2022-12-20T04:46:17.671Z,1003.37
2022-12-20T04:47:17.656Z,1003.4
2022-12-20T04:48:17.664Z,1003.31
2022-12-20T04:49:17.631Z,1003.31
2022-12-20T04:50:17.620Z,1003.31
2022-12-20T04:51:17.662Z,1003.27
2022-12-20T04:52:17.610Z,1003.18
2022-12-20T04:53:17.587Z,1003.28
2022-12-20T04:54:17.609Z,1003.23
2022-12-20T04:55:17.566Z,1003.3
2022-12-20T04:56:17.558Z,1003.29
2022-12-20T04:57:17.542Z,1003.36
2022-12-20T04:58:17.563Z,1003.27
2022-12-20T04:59:17.526Z,1003.33
2022-12-20T05:00:17.506Z,1003.28
2022-12-20T05:01:17.504Z,1003.27
2022-12-20T05:02:17.500Z,1003.21
2022-12-20T05:03:17.597Z,1003.17
2022-12-20T05:04:17.472Z,1003.19
2022-12-20T05:05:17.478Z,1003.13
2022-12-20T05:06:17.534Z,1003.18
2022-12-20T05:07:17.475Z,1003.14
2022-12-20T05:08:17.482Z,1003.09
2022-12-20T05:09:17.613Z,1003.1
2022-12-20T05:10:17.701Z,1003.12
2022-12-20T05:11:17.396Z,1003.1
2022-12-20T05:12:17.422Z,1003.09
2022-12-20T05:13:17.400Z,1003.07
2022-12-20T05:14:17.378Z,1003.05
2022-12-20T05:15:17.626Z,1003.11
2022-12-20T05:16:17.342Z,1003.09
2022-12-20T05:17:17.337Z,1003.13
2022-12-20T05:18:17.340Z,1003.07
2022-12-20T05:19:17.313Z,1003.16
2022-12-20T05:20:17.296Z,1003.16
2022-12-20T05:21:17.293Z,1003.12
2022-12-20T05:22:17.279Z,1003.14
2022-12-20T05:23:17.289Z,1003.14
2022-12-20T05:24:17.271Z,1003.11
2022-12-20T05:25:17.261Z,1003.13
2022-12-20T05:26:17.244Z,1003.17
2022-12-20T05:27:17.264Z,1003.12
2022-12-20T05:28:17.228Z,1003.13
2022-12-20T05:29:17.242Z,1003.19
2022-12-20T05:30:18.043Z,1003.15
2022-12-20T05:31:17.183Z,1003.09
2022-12-20T05:32:17.176Z,1003.14
2022-12-20T05:33:17.207Z,1003.1
2022-12-20T05:34:17.167Z,1003.03
2022-12-20T05:35:17.199Z,1003.03
2022-12-20T05:36:17.127Z,1003.07
2022-12-20T05:37:17.118Z,1003.13
2022-12-20T05:38:17.213Z,1003.09
2022-12-20T05:39:17.101Z,1003.11
2022-12-20T05:40:17.098Z,1003.18
2022-12-20T05:41:17.110Z,1003.07
2022-12-20T05:42:17.069Z,1003.14
2022-12-20T05:43:17.058Z,1003.07
2022-12-20T05:44:17.044Z,1003.09
2022-12-20T05:45:17.040Z,1003.14
2022-12-20T05:46:17.036Z,1003.07
2022-12-20T05:47:17.050Z,1002.99
2022-12-20T05:48:17.003Z,1002.95
2022-12-20T05:49:16.991Z,1003.06
2022-12-20T05:50:17.013Z,1003.07
2022-12-20T05:51:16.977Z,1003.07
2022-12-20T05:52:16.959Z,1003.1
2022-12-20T05:53:16.948Z,1003.12
2022-12-20T05:54:16.943Z,1003.08
2022-12-20T05:55:16.960Z,1003.07
2022-12-20T05:56:16.972Z,1003.14
2022-12-20T05:57:16.934Z,1003.19
2022-12-20T05:58:16.921Z,1003.18
2022-12-20T05:59:16.886Z,1003.16
2022-12-20T06:00:17.049Z,1003.2
2022-12-20T06:01:16.867Z,1003.15
2022-12-20T06:02:16.858Z,1003.14
2022-12-20T06:03:16.848Z,1003.21
2022-12-20T06:04:16.859Z,1003.2
2022-12-20T06:05:16.842Z,1003.19
2022-12-20T06:06:16.816Z,1003.24
2022-12-20T06:07:16.810Z,1003.15
2022-12-20T06:08:16.790Z,1003.17
2022-12-20T06:09:16.784Z,1003.17
2022-12-20T06:10:16.771Z,1003.17
2022-12-20T06:11:16.901Z,1003.1
2022-12-20T06:12:17.784Z,1003.01
2022-12-20T06:13:16.743Z,1002.95
2022-12-20T06:14:16.729Z,1002.89
2022-12-20T06:15:16.760Z,1002.93
2022-12-20T06:16:16.718Z,1002.93
2022-12-20T06:17:16.702Z,1002.89
2022-12-20T06:18:16.711Z,1002.97
2022-12-20T06:19:16.683Z,1002.95
2022-12-20T06:20:16.677Z,1003
2022-12-20T06:21:16.666Z,1003.01
2022-12-20T06:22:16.648Z,1002.94
2022-12-20T06:23:16.642Z,1002.94
2022-12-20T06:24:16.632Z,1002.93
2022-12-20T06:25:16.622Z,1002.9
2022-12-20T06:26:16.611Z,1002.92
2022-12-20T06:27:16.626Z,1002.92
2022-12-20T06:28:16.598Z,1002.92
2022-12-20T06:29:16.580Z,1002.89
2022-12-20T06:30:16.792Z,1002.91
2022-12-20T06:31:16.561Z,1002.88
2022-12-20T06:32:16.544Z,1002.91
2022-12-20T06:33:16.544Z,1002.9
2022-12-20T06:34:16.539Z,1002.89
2022-12-20T06:35:16.515Z,1002.85
2022-12-20T06:36:16.602Z,1002.96
2022-12-20T06:37:16.517Z,1002.91
2022-12-20T06:38:16.512Z,1002.88
2022-12-20T06:39:16.479Z,1002.94
2022-12-20T06:40:16.457Z,1002.92
2022-12-20T06:41:16.533Z,1002.91
2022-12-20T06:42:16.451Z,1002.94
2022-12-20T06:43:16.431Z,1002.93
2022-12-20T06:44:16.443Z,1002.91
2022-12-20T06:45:16.411Z,1002.94
2022-12-20T06:46:16.450Z,1002.95
2022-12-20T06:47:16.407Z,1002.94
2022-12-20T06:48:16.401Z,1002.87
2022-12-20T06:49:16.368Z,1002.88
2022-12-20T06:50:16.390Z,1002.91
2022-12-20T06:51:16.395Z,1002.86
2022-12-20T06:52:16.335Z,1002.82
2022-12-20T06:53:16.342Z,1002.82
2022-12-20T06:54:16.344Z,1002.79
2022-12-20T06:55:16.313Z,1002.92
2022-12-20T06:56:16.348Z,1002.93
2022-12-20T06:57:16.426Z,1003.01
2022-12-20T06:58:16.284Z,1002.97
2022-12-20T06:59:16.304Z,1002.95
2022-12-20T07:00:16.253Z,1002.88
2022-12-20T07:01:16.630Z,1002.93
2022-12-20T07:02:16.232Z,1002.93
2022-12-20T07:03:16.244Z,1002.86
2022-12-20T07:04:16.217Z,1002.8
2022-12-20T07:05:16.243Z,1002.82
2022-12-20T07:06:16.237Z,1002.71
2022-12-20T07:07:16.192Z,1002.76
2022-12-20T07:08:16.234Z,1002.81
2022-12-20T07:09:16.162Z,1002.84
2022-12-20T07:10:16.149Z,1002.86
2022-12-20T07:11:16.150Z,1002.82
2022-12-20T07:12:16.165Z,1002.84
2022-12-20T07:13:16.164Z,1002.78
2022-12-20T07:14:16.106Z,1002.84
2022-12-20T07:15:16.103Z,1002.82
2022-12-20T07:16:16.101Z,1002.79
2022-12-20T07:17:16.085Z,1002.83
2022-12-20T07:18:16.070Z,1002.85
2022-12-20T07:19:16.064Z,1002.81
2022-12-20T07:20:16.052Z,1002.85
2022-12-20T07:21:16.034Z,1002.81
2022-12-20T07:22:16.060Z,1002.79
2022-12-20T07:23:16.017Z,1002.76
2022-12-20T07:24:16.007Z,1002.74
2022-12-20T07:25:16.004Z,1002.84
2022-12-20T07:26:15.989Z,1002.81
2022-12-20T07:27:15.986Z,1002.84
2022-12-20T07:28:15.981Z,1002.8
2022-12-20T07:29:15.990Z,1002.89
2022-12-20T07:30:15.945Z,1002.79
2022-12-20T07:31:15.973Z,1002.82
2022-12-20T07:32:15.939Z,1002.86
2022-12-20T07:33:15.974Z,1002.82
2022-12-20T07:34:15.965Z,1002.88
2022-12-20T07:35:15.975Z,1002.9
2022-12-20T07:36:16.020Z,1002.82
2022-12-20T07:37:15.871Z,1002.94
2022-12-20T07:38:15.864Z,1002.92
2022-12-20T07:39:15.866Z,1002.89
2022-12-20T07:40:15.850Z,1002.87
2022-12-20T07:41:15.845Z,1002.83
2022-12-20T07:42:15.825Z,1002.83
2022-12-20T07:43:15.829Z,1002.79
2022-12-20T07:44:15.864Z,1002.79
2022-12-20T07:45:15.795Z,1002.76
2022-12-20T07:46:15.855Z,1002.74
2022-12-20T07:47:15.799Z,1002.68
2022-12-20T07:48:15.775Z,1002.67
2022-12-20T07:49:15.847Z,1002.72
2022-12-20T07:50:15.843Z,1002.69
2022-12-20T07:51:15.805Z,1002.66
2022-12-20T07:52:15.798Z,1002.7
2022-12-20T07:53:15.747Z,1002.67
2022-12-20T07:54:15.766Z,1002.64
2022-12-20T07:55:15.791Z,1002.65
2022-12-20T07:56:15.690Z,1002.62
2022-12-20T07:57:15.678Z,1002.69
2022-12-20T07:58:15.741Z,1002.65
2022-12-20T07:59:15.659Z,1002.59
2022-12-20T08:00:15.637Z,1002.59
2022-12-20T08:01:15.623Z,1002.55
2022-12-20T08:02:15.739Z,1002.55
2022-12-20T08:03:15.620Z,1002.62
2022-12-20T08:04:15.631Z,1002.62
2022-12-20T08:05:15.673Z,1002.64
2022-12-20T08:06:15.579Z,1002.68
2022-12-20T08:07:15.561Z,1002.71
2022-12-20T08:08:15.763Z,1002.69
2022-12-20T08:09:15.775Z,1002.66
2022-12-20T08:10:15.556Z,1002.6
2022-12-20T08:11:15.517Z,1002.65
2022-12-20T08:12:15.510Z,1002.6
2022-12-20T08:13:15.502Z,1002.53
2022-12-20T08:14:15.482Z,1002.63
2022-12-20T08:15:15.481Z,1002.69
2022-12-20T08:16:15.544Z,1002.74
2022-12-20T08:17:16.470Z,1002.7
2022-12-20T08:18:15.444Z,1002.6
2022-12-20T08:19:15.645Z,1002.61
2022-12-20T08:20:15.438Z,1002.63
2022-12-20T08:21:15.419Z,1002.62
2022-12-20T08:22:15.423Z,1002.65
2022-12-20T08:23:15.390Z,1002.6
2022-12-20T08:24:15.421Z,1002.66
2022-12-20T08:25:15.379Z,1002.61
2022-12-20T08:26:15.367Z,1002.57
2022-12-20T08:27:15.368Z,1002.63
2022-12-20T08:28:15.552Z,1002.57
2022-12-20T08:29:15.336Z,1002.53
2022-12-20T08:30:15.336Z,1002.53
2022-12-20T08:31:15.322Z,1002.46
2022-12-20T08:32:15.402Z,1002.44
2022-12-20T08:33:15.307Z,1002.4
2022-12-20T08:34:15.290Z,1002.36
2022-12-20T08:35:15.309Z,1002.31
2022-12-20T08:36:15.264Z,1002.27
2022-12-20T08:37:15.299Z,1002.22
2022-12-20T08:38:15.276Z,1002.22
2022-12-20T08:39:15.341Z,1002.22
2022-12-20T08:40:15.234Z,1002.29
2022-12-20T08:41:15.214Z,1002.39
2022-12-20T08:42:15.226Z,1002.51
2022-12-20T08:43:15.203Z,1002.5
2022-12-20T08:44:15.181Z,1002.43
2022-12-20T08:45:15.175Z,1002.29
2022-12-20T08:46:15.161Z,1002.27
2022-12-20T08:47:15.177Z,1002.35
2022-12-20T08:48:15.136Z,1002.33
2022-12-20T08:49:15.119Z,1002.39
2022-12-20T08:50:15.132Z,1002.31
2022-12-20T08:51:15.120Z,1002.3
2022-12-20T08:52:15.091Z,1002.23
2022-12-20T08:53:15.094Z,1002.28
2022-12-20T08:54:15.068Z,1002.22
2022-12-20T08:55:15.078Z,1002.21
2022-12-20T08:56:15.075Z,1002.15
2022-12-20T08:57:15.055Z,1002.13
2022-12-20T08:58:15.031Z,1002.12
2022-12-20T08:59:15.032Z,1002.1
2022-12-20T09:00:15.013Z,1002.12
2022-12-20T09:01:15.018Z,1002.08
2022-12-20T09:02:15.018Z,1002.07
2022-12-20T09:03:15.069Z,1002.04
2022-12-20T09:04:14.967Z,1001.99
2022-12-20T09:05:14.959Z,1002.03
2022-12-20T09:06:14.944Z,1002.03
2022-12-20T09:07:14.933Z,1001.92
2022-12-20T09:08:14.958Z,1001.91
2022-12-20T09:09:14.965Z,1001.92
2022-12-20T09:10:14.926Z,1001.97
2022-12-20T09:11:14.912Z,1001.97
2022-12-20T09:12:14.890Z,1002.12
2022-12-20T09:13:14.895Z,1002.04
2022-12-20T09:14:14.859Z,1002.1
2022-12-20T09:15:14.906Z,1002.04
2022-12-20T09:16:14.839Z,1002.08
2022-12-20T09:17:14.839Z,1002.14
2022-12-20T09:18:14.839Z,1002.18
2022-12-20T09:19:14.806Z,1002.11
2022-12-20T09:20:14.819Z,1002.17
2022-12-20T09:21:14.790Z,1002.13
2022-12-20T09:22:14.779Z,1002.18
2022-12-20T09:23:14.811Z,1002.13
2022-12-20T09:24:14.787Z,1002.1
2022-12-20T09:25:14.747Z,1002.02
2022-12-20T09:26:14.746Z,1002.04
2022-12-20T09:27:14.767Z,1002.05
2022-12-20T09:28:14.713Z,1002.09
2022-12-20T09:29:14.709Z,1002.06
2022-12-20T09:30:14.699Z,1002
2022-12-20T09:31:14.709Z,1001.98
2022-12-20T09:32:14.692Z,1001.92
2022-12-20T09:33:14.708Z,1001.99
2022-12-20T09:34:14.685Z,1001.96
2022-12-20T09:35:14.646Z,1001.95
2022-12-20T09:36:14.655Z,1001.89
2022-12-20T09:37:14.627Z,1001.97
2022-12-20T09:38:14.621Z,1001.91
2022-12-20T09:39:14.612Z,1001.84
2022-12-20T09:40:14.606Z,1001.81
2022-12-20T09:41:14.584Z,1001.83
2022-12-20T09:42:14.570Z,1001.76
2022-12-20T09:43:14.576Z,1001.79
2022-12-20T09:44:14.599Z,1001.73
2022-12-20T09:45:14.560Z,1001.76
2022-12-20T09:46:14.532Z,1001.75
2022-12-20T09:47:15.531Z,1001.73
2022-12-20T09:48:14.515Z,1001.74
2022-12-20T09:49:14.494Z,1001.63
2022-12-20T09:50:14.492Z,1001.65
2022-12-20T09:51:14.501Z,1001.68
2022-12-20T09:52:14.477Z,1001.68
2022-12-20T09:53:14.482Z,1001.68
2022-12-20T09:54:14.457Z,1001.69
2022-12-20T09:55:14.519Z,1001.59
2022-12-20T09:56:14.439Z,1001.56
2022-12-20T09:57:14.418Z,1001.51
2022-12-20T09:58:14.403Z,1001.49
2022-12-20T09:59:14.387Z,1001.41
2022-12-20T10:00:24.287Z,1001.48
2022-12-20T10:01:14.369Z,1001.5
2022-12-20T10:02:14.356Z,1001.49
2022-12-20T10:03:14.358Z,1001.47
2022-12-20T10:04:14.339Z,1001.41
2022-12-20T10:05:14.327Z,1001.46
2022-12-20T10:06:14.316Z,1001.43
2022-12-20T10:07:14.308Z,1001.38
2022-12-20T10:08:14.329Z,1001.4
2022-12-20T10:09:14.326Z,1001.37
2022-12-20T10:10:14.278Z,1001.36
2022-12-20T10:11:14.266Z,1001.3
2022-12-20T10:12:14.252Z,1001.43
2022-12-20T10:13:14.261Z,1001.38
2022-12-20T10:14:14.242Z,1001.41
2022-12-20T10:15:14.218Z,1001.44
2022-12-20T10:16:14.214Z,1001.4
2022-12-20T10:17:14.200Z,1001.38
2022-12-20T10:18:14.189Z,1001.38
2022-12-20T10:19:14.190Z,1001.43
2022-12-20T10:20:14.170Z,1001.37
2022-12-20T10:21:14.159Z,1001.29
2022-12-20T10:22:14.149Z,1001.33
2022-12-20T10:23:14.157Z,1001.31
2022-12-20T10:24:14.123Z,1001.36
2022-12-20T10:25:14.119Z,1001.39
2022-12-20T10:26:14.105Z,1001.32
2022-12-20T10:27:14.099Z,1001.39
2022-12-20T10:28:14.087Z,1001.39
2022-12-20T10:29:14.075Z,1001.37
2022-12-20T10:30:14.064Z,1001.45
2022-12-20T10:31:14.135Z,1001.39
2022-12-20T10:32:14.068Z,1001.38
2022-12-20T10:33:14.036Z,1001.36
2022-12-20T10:34:14.028Z,1001.37
2022-12-20T10:35:14.027Z,1001.39
2022-12-20T10:36:14.017Z,1001.38
2022-12-20T10:37:14.024Z,1001.36
2022-12-20T10:38:14.018Z,1001.35
2022-12-20T10:39:13.979Z,1001.34
2022-12-20T10:40:13.959Z,1001.38
2022-12-20T10:41:13.973Z,1001.35
2022-12-20T10:42:13.946Z,1001.39
2022-12-20T10:43:13.938Z,1001.35
2022-12-20T10:44:13.950Z,1001.32
2022-12-20T10:45:13.921Z,1001.31
2022-12-20T10:46:13.913Z,1001.29
2022-12-20T10:47:13.884Z,1001.27
2022-12-20T10:48:13.888Z,1001.19
2022-12-20T10:49:13.875Z,1001.21
2022-12-20T10:50:13.878Z,1001.19
2022-12-20T10:51:13.842Z,1001.23
2022-12-20T10:52:13.853Z,1001.14
2022-12-20T10:53:21.477Z,1001.07
2022-12-20T10:54:13.809Z,1001.1
2022-12-20T10:55:13.799Z,1001.08
2022-12-20T10:56:13.785Z,1001.19
2022-12-20T10:57:13.774Z,1001.1
2022-12-20T10:58:13.773Z,1001.12
2022-12-20T10:59:13.800Z,1001.09
2022-12-20T11:04:18.889Z,1001.08
2022-12-20T11:05:18.934Z,1001.08
2022-12-20T11:06:18.870Z,1001.08
2022-12-20T11:07:18.845Z,1001.06
2022-12-20T11:08:18.898Z,1001.03
2022-12-20T11:09:18.823Z,1000.97
2022-12-20T11:10:18.830Z,1001.01
2022-12-20T11:11:18.799Z,1000.98
2022-12-20T11:12:18.787Z,1001.09
2022-12-20T11:13:18.778Z,1001.07
2022-12-20T11:14:18.773Z,1001
2022-12-20T11:15:18.755Z,1000.99
2022-12-20T11:16:18.745Z,1000.98
2022-12-20T11:17:18.739Z,1000.95
2022-12-20T11:19:36.139Z,1001.03
2022-12-20T11:20:36.106Z,1000.96
2022-12-20T11:21:36.025Z,1000.91
2022-12-20T11:22:36.138Z,1000.98
2022-12-20T11:23:35.925Z,1000.98
2022-12-20T11:24:35.890Z,1001.01
2022-12-20T11:25:35.885Z,1000.96
2022-12-20T11:26:36.864Z,1000.94
2022-12-20T11:27:35.861Z,1000.92
2022-12-20T11:28:35.848Z,1000.92
2022-12-20T11:29:35.871Z,1000.87
2022-12-20T11:30:35.866Z,1000.9
2022-12-20T11:31:35.836Z,1000.86
2022-12-20T11:32:35.801Z,1000.86
2022-12-20T11:33:35.808Z,1000.86
2022-12-20T11:34:35.798Z,1000.85
2022-12-20T11:35:35.771Z,1000.83
2022-12-20T11:36:35.783Z,1000.87
2022-12-20T11:37:35.808Z,1000.83
2022-12-20T11:38:35.756Z,1000.72
2022-12-20T11:39:35.738Z,1000.74
2022-12-20T11:40:35.725Z,1000.74
2022-12-20T11:41:35.716Z,1000.7
2022-12-20T11:42:35.697Z,1000.7
2022-12-20T11:43:35.842Z,1000.65
2022-12-20T11:44:35.721Z,1000.58
2022-12-20T11:45:35.673Z,1000.55
2022-12-20T11:46:35.656Z,1000.58
2022-12-20T11:47:35.658Z,1000.53
2022-12-20T11:48:35.638Z,1000.47
2022-12-20T11:49:35.669Z,1000.48
2022-12-20T11:50:35.673Z,1000.45
2022-12-20T11:51:35.708Z,1000.41
2022-12-20T11:52:35.597Z,1000.48
2022-12-20T11:53:35.582Z,1000.5
2022-12-20T11:54:35.577Z,1000.48
2022-12-20T11:55:35.600Z,1000.54
2022-12-20T11:56:35.582Z,1000.53
2022-12-20T11:57:36.097Z,1000.48
2022-12-20T11:58:35.560Z,1000.45
2022-12-20T11:59:35.686Z,1000.41
2022-12-20T12:00:35.524Z,1000.45
2022-12-20T12:01:35.504Z,1000.47
2022-12-20T12:02:35.520Z,1000.47
2022-12-20T12:03:35.493Z,1000.43
2022-12-20T12:04:35.492Z,1000.4
2022-12-20T12:05:35.495Z,1000.44
2022-12-20T12:06:35.459Z,1000.43
2022-12-20T12:07:35.464Z,1000.42
2022-12-20T12:08:35.496Z,1000.34
2022-12-20T12:09:35.415Z,1000.28
2022-12-20T12:10:35.401Z,1000.15
2022-12-20T12:11:35.394Z,1000.23
2022-12-20T12:12:36.413Z,1000.16
2022-12-20T12:13:35.425Z,1000.13
2022-12-20T12:14:35.380Z,1000.2
2022-12-20T12:15:35.353Z,1000.36
2022-12-20T12:16:35.353Z,1000.39
2022-12-20T12:17:35.378Z,1000.27
2022-12-20T12:18:35.315Z,1000.26
2022-12-20T12:19:35.319Z,1000.25
2022-12-20T12:20:35.342Z,1000.22
2022-12-20T12:21:35.280Z,1000.21
2022-12-20T12:22:35.278Z,1000.19
2022-12-20T12:23:35.265Z,1000.11
2022-12-20T12:24:35.251Z,1000.04
2022-12-20T12:25:35.250Z,1000.09
2022-12-20T12:26:35.238Z,1000.06
2022-12-20T12:27:35.219Z,1000.05
2022-12-20T12:28:35.223Z,999.97
2022-12-20T12:29:35.217Z,999.94
2022-12-20T12:30:35.186Z,999.88
2022-12-20T12:31:35.200Z,999.9
2022-12-20T12:32:35.175Z,999.87
2022-12-20T12:33:35.196Z,999.96
2022-12-20T12:34:35.158Z,999.95
2022-12-20T12:35:35.152Z,999.94
2022-12-20T12:36:35.123Z,999.99
2022-12-20T12:37:35.118Z,999.98
2022-12-20T12:38:35.110Z,1000.02
2022-12-20T12:39:35.100Z,1000.04
2022-12-20T12:40:35.088Z,1000.06
2022-12-20T12:41:35.088Z,1000.12
2022-12-20T12:42:35.065Z,1000.06
2022-12-20T12:43:35.054Z,1000.02
2022-12-20T12:44:35.058Z,1000.02
2022-12-20T12:45:35.037Z,1000.05
2022-12-20T12:46:35.072Z,1000.04
2022-12-20T12:47:35.039Z,1000.02
2022-12-20T12:48:35.014Z,999.96
2022-12-20T12:49:35.008Z,999.96
2022-12-20T12:50:34.985Z,999.92
2022-12-20T12:51:34.978Z,999.92
2022-12-20T14:53:04.686Z,999.49
2022-12-20T16:49:32.249Z,999.58